createdAt,value
2022-07-29T00:02:25.619Z,2.42
2022-07-29T00:04:52.224Z,2.20
2022-07-29T00:07:19.237Z,2.70
2022-07-29T00:09:52.024Z,2.42
2022-07-29T00:12:26.230Z,2.30
2022-07-29T00:14:57.677Z,2.30
2022-07-29T00:17:27.160Z,2.38
2022-07-29T00:19:53.661Z,2.70
2022-07-29T00:22:20.908Z,2.38
2022-07-29T00:24:50.253Z,2.67
2022-07-29T00:27:17.443Z,2.80
2022-07-29T00:29:43.932Z,2.35
2022-07-29T00:32:10.470Z,3.20
2022-07-29T00:34:55.660Z,2.55
2022-07-29T00:37:22.243Z,2.60
2022-07-29T00:39:51.473Z,2.10
2022-07-29T00:42:18.442Z,2.30
2022-07-29T00:44:44.894Z,2.30
2022-07-29T00:47:12.022Z,2.50
2022-07-29T00:49:41.062Z,2.40
2022-07-29T00:52:08.935Z,2.58
2022-07-29T00:54:37.172Z,2.70
2022-07-29T00:57:10.943Z,2.50
2022-07-29T00:59:37.464Z,2.58
2022-07-29T01:02:04.393Z,2.75
2022-07-29T01:04:32.002Z,2.55
2022-07-29T01:06:59.061Z,2.53
2022-07-29T01:09:45.165Z,2.40
2022-07-29T01:12:23.960Z,2.35
2022-07-29T01:14:51.493Z,2.60
2022-07-29T01:17:27.743Z,3.08
2022-07-29T01:20:24.749Z,2.92
2022-07-29T01:25:55.768Z,2.25
2022-07-29T01:28:50.234Z,2.60
2022-07-29T01:31:26.976Z,2.67
2022-07-29T01:34:02.533Z,2.67
2022-07-29T01:36:38.113Z,2.38
2022-07-29T01:39:23.946Z,2.38
2022-07-29T01:42:22.195Z,2.50
2022-07-29T01:44:58.195Z,2.75
2022-07-29T01:47:30.730Z,3.05
2022-07-29T01:50:00.702Z,2.72
2022-07-29T01:52:34.863Z,2.53
2022-07-29T01:55:08.538Z,2.30
2022-07-29T01:57:38.398Z,2.70
2022-07-29T02:00:06.469Z,2.75
2022-07-29T02:02:34.394Z,2.58
2022-07-29T02:05:03.247Z,2.60
2022-07-29T02:07:33.057Z,2.50
2022-07-29T02:10:03.327Z,2.88
2022-07-29T02:12:31.928Z,2.47
2022-07-29T02:15:01.966Z,2.70
2022-07-29T02:17:32.453Z,2.53
2022-07-29T02:20:02.574Z,2.50
2022-07-29T02:22:30.995Z,2.88
2022-07-29T02:24:59.612Z,2.38
2022-07-29T02:27:29.398Z,2.60
2022-07-29T02:29:58.384Z,3.10
2022-07-29T02:32:27.065Z,2.80
2022-07-29T02:34:55.038Z,2.85
2022-07-29T02:37:22.380Z,2.85
2022-07-29T02:39:49.889Z,2.78
2022-07-29T02:42:19.399Z,2.78
2022-07-29T02:44:46.190Z,2.55
2022-07-29T02:47:41.806Z,3.10
2022-07-29T02:50:15.111Z,2.80
2022-07-29T02:55:26.106Z,2.50
2022-07-29T02:58:03.427Z,2.63
2022-07-29T03:00:32.409Z,2.90
2022-07-29T03:03:07.756Z,2.70
2022-07-29T03:05:36.089Z,2.80
2022-07-29T03:08:05.920Z,2.70
2022-07-29T03:10:32.817Z,2.22
2022-07-29T03:12:59.983Z,2.72
2022-07-29T03:15:27.438Z,3.40
2022-07-29T03:17:54.699Z,2.70
2022-07-29T03:20:21.913Z,2.80
2022-07-29T03:22:48.643Z,2.78
2022-07-29T03:25:16.609Z,2.88
2022-07-29T03:27:43.978Z,2.90
2022-07-29T03:30:11.830Z,3.00
2022-07-29T03:32:38.657Z,2.90
2022-07-29T03:35:07.262Z,2.55
2022-07-29T03:37:34.467Z,2.88
2022-07-29T03:40:05.906Z,2.60
2022-07-29T03:42:34.647Z,2.70
2022-07-29T03:45:04.326Z,2.70
2022-07-29T03:47:49.590Z,2.70
2022-07-29T03:50:20.273Z,2.72
2022-07-29T03:52:47.569Z,2.65
2022-07-29T03:55:15.086Z,3.00
2022-07-29T03:57:42.972Z,3.00
2022-07-29T04:00:10.084Z,2.92
2022-07-29T04:02:38.847Z,3.00
2022-07-29T04:05:05.691Z,3.28
2022-07-29T04:07:32.151Z,3.00
2022-07-29T04:09:58.642Z,2.95
2022-07-29T04:12:25.770Z,3.00
2022-07-29T04:14:52.273Z,2.80
2022-07-29T04:17:18.746Z,3.20
2022-07-29T04:19:45.247Z,3.13
2022-07-29T04:22:11.813Z,3.05
2022-07-29T04:24:38.302Z,2.80
2022-07-29T04:27:04.759Z,3.13
2022-07-29T04:29:31.246Z,3.33
2022-07-29T04:31:57.729Z,2.92
2022-07-29T04:34:28.052Z,3.00
2022-07-29T04:36:55.110Z,3.38
2022-07-29T04:39:23.285Z,2.95
2022-07-29T04:41:51.161Z,3.33
2022-07-29T04:44:19.648Z,3.00
2022-07-29T04:46:46.398Z,2.97
2022-07-29T04:49:13.075Z,2.92
2022-07-29T04:51:39.818Z,3.08
2022-07-29T04:54:07.071Z,2.58
2022-07-29T04:56:33.547Z,3.08
2022-07-29T04:59:00.034Z,3.45
2022-07-29T05:01:26.654Z,3.03
2022-07-29T05:03:57.026Z,2.85
2022-07-29T05:06:26.507Z,3.08
2022-07-29T05:08:52.976Z,3.08
2022-07-29T05:11:22.377Z,2.80
2022-07-29T05:13:49.763Z,2.83
2022-07-29T05:16:16.323Z,3.05
2022-07-29T05:18:43.156Z,2.92
2022-07-29T05:21:09.796Z,2.80
2022-07-29T05:23:36.614Z,2.92
2022-07-29T05:26:03.208Z,3.00
2022-07-29T05:28:29.674Z,3.03
2022-07-29T05:30:56.258Z,2.90
2022-07-29T05:33:35.418Z,2.80
2022-07-29T05:36:06.452Z,3.00
2022-07-29T05:38:33.210Z,2.80
2022-07-29T05:41:00.529Z,3.10
2022-07-29T05:43:30.184Z,2.78
2022-07-29T05:45:57.617Z,3.20
2022-07-29T05:48:24.418Z,3.40
2022-07-29T05:50:50.946Z,3.22
2022-07-29T05:53:19.445Z,3.30
2022-07-29T05:55:51.003Z,3.10
2022-07-29T05:58:17.536Z,3.35
2022-07-29T06:00:44.213Z,3.38
2022-07-29T06:03:10.760Z,3.80
2022-07-29T06:05:37.275Z,3.22
2022-07-29T06:08:06.569Z,3.30
2022-07-29T06:10:33.216Z,4.15
2022-07-29T06:12:59.745Z,3.85
2022-07-29T06:15:26.404Z,3.38
2022-07-29T06:17:59.293Z,3.58
2022-07-29T06:20:27.822Z,3.40
2022-07-29T06:22:54.515Z,3.30
2022-07-29T06:25:21.131Z,3.92
2022-07-29T06:27:47.644Z,3.45
2022-07-29T06:30:14.576Z,3.70
2022-07-29T06:32:43.263Z,3.80
2022-07-29T06:35:36.174Z,4.07
2022-07-29T06:37:59.633Z,3.38
2022-07-29T06:40:45.407Z,3.20
2022-07-29T06:43:11.942Z,3.83
2022-07-29T06:45:42.182Z,3.47
2022-07-29T06:48:09.318Z,3.90
2022-07-29T06:50:35.847Z,4.03
2022-07-29T06:53:02.447Z,3.90
2022-07-29T06:55:28.907Z,4.32
2022-07-29T06:57:55.363Z,3.97
2022-07-29T07:00:21.920Z,4.20
2022-07-29T07:02:48.873Z,4.25
2022-07-29T07:05:15.507Z,4.07
2022-07-29T07:07:42.042Z,4.30
2022-07-29T07:10:08.843Z,4.60
2022-07-29T07:12:35.338Z,3.80
2022-07-29T07:15:01.845Z,4.05
2022-07-29T07:17:28.374Z,4.38
2022-07-29T07:19:54.821Z,4.80
2022-07-29T07:22:21.358Z,4.30
2022-07-29T07:24:47.788Z,3.97
2022-07-29T07:27:14.329Z,4.43
2022-07-29T07:29:42.137Z,3.88
2022-07-29T07:32:11.236Z,4.88
2022-07-29T07:34:38.963Z,4.13
2022-07-29T07:37:06.470Z,4.32
2022-07-29T07:39:33.106Z,4.10
2022-07-29T07:41:59.911Z,4.07
2022-07-29T07:44:26.518Z,4.10
2022-07-29T07:46:53.391Z,4.05
2022-07-29T07:49:21.551Z,4.10
2022-07-29T07:51:50.847Z,3.67
2022-07-29T07:54:20.652Z,4.20
2022-07-29T07:56:49.941Z,4.13
2022-07-29T07:59:20.065Z,4.43
2022-07-29T08:01:47.801Z,4.13
2022-07-29T08:04:27.716Z,3.90
2022-07-29T08:06:55.771Z,3.95
2022-07-29T08:09:29.213Z,4.00
2022-07-29T08:11:58.506Z,3.95
2022-07-29T08:14:25.680Z,4.10
2022-07-29T08:16:52.359Z,4.30
2022-07-29T08:19:19.273Z,4.00
2022-07-29T08:21:45.851Z,3.75
2022-07-29T08:24:44.761Z,4.72
2022-07-29T08:27:33.401Z,4.18
2022-07-29T08:29:58.556Z,4.60
2022-07-29T08:32:50.837Z,3.85
2022-07-29T08:35:14.228Z,4.18
2022-07-29T08:37:40.725Z,3.45
2022-07-29T08:40:07.549Z,4.68
2022-07-29T08:42:34.041Z,4.15
2022-07-29T08:45:00.657Z,3.92
2022-07-29T08:47:30.617Z,3.97
2022-07-29T08:49:57.258Z,4.03
2022-07-29T08:52:26.813Z,3.65
2022-07-29T08:54:54.309Z,3.95
2022-07-29T08:57:23.501Z,3.97
2022-07-29T08:59:53.321Z,3.70
2022-07-29T09:02:22.030Z,3.80
2022-07-29T09:04:49.758Z,3.97
2022-07-29T09:07:18.588Z,3.88
2022-07-29T09:09:45.988Z,4.20
2022-07-29T09:12:13.263Z,4.03
2022-07-29T09:14:56.258Z,4.25
2022-07-29T09:17:41.385Z,3.70
2022-07-29T09:20:13.680Z,3.80
2022-07-29T09:22:42.211Z,4.50
2022-07-29T09:25:09.581Z,3.90
2022-07-29T09:27:36.561Z,3.92
2022-07-29T09:30:05.337Z,4.45
2022-07-29T09:32:33.016Z,4.03
2022-07-29T09:35:20.184Z,4.10
2022-07-29T09:37:47.502Z,4.15
2022-07-29T09:40:19.110Z,4.47
2022-07-29T09:42:46.630Z,4.20
2022-07-29T09:45:26.584Z,4.47
2022-07-29T09:47:53.105Z,4.05
2022-07-29T09:50:24.918Z,4.20
2022-07-29T09:52:54.164Z,3.93
2022-07-29T09:55:20.824Z,3.88
2022-07-29T09:57:48.380Z,4.50
2022-07-29T10:00:18.733Z,4.35
2022-07-29T10:02:47.131Z,4.10
2022-07-29T10:05:21.821Z,4.25
2022-07-29T10:07:57.225Z,4.10
2022-07-29T10:10:26.733Z,4.53
2022-07-29T10:13:07.787Z,4.10
2022-07-29T10:15:39.455Z,4.25
2022-07-29T10:18:07.092Z,4.40
2022-07-29T10:20:33.741Z,4.63
2022-07-29T10:23:00.238Z,4.22
2022-07-29T10:25:28.937Z,4.15
2022-07-29T10:27:55.885Z,4.57
2022-07-29T10:30:25.337Z,4.90
2022-07-29T10:33:23.118Z,4.72
2022-07-29T10:36:08.329Z,4.40
2022-07-29T10:39:15.916Z,4.80
2022-07-29T10:42:03.634Z,3.90
2022-07-29T10:44:31.327Z,3.83
2022-07-29T10:46:58.561Z,5.00
2022-07-29T10:49:30.280Z,4.00
2022-07-29T10:52:07.355Z,4.38
2022-07-29T10:54:46.133Z,3.88
2022-07-29T10:57:15.728Z,4.18
2022-07-29T10:59:44.137Z,4.47
2022-07-29T11:02:46.533Z,4.28
2022-07-29T11:08:20.052Z,4.18
2022-07-29T11:10:49.863Z,4.55
2022-07-29T11:13:44.642Z,4.05
2022-07-29T11:16:13.795Z,4.40
2022-07-29T11:22:00.282Z,4.18
2022-07-29T11:24:33.199Z,3.80
2022-07-29T11:27:23.332Z,4.45
2022-07-29T11:30:03.332Z,4.15
2022-07-29T11:32:48.450Z,4.63
2022-07-29T11:35:38.510Z,4.75
2022-07-29T11:38:31.766Z,4.72
2022-07-29T11:41:27.545Z,4.32
2022-07-29T11:43:56.835Z,4.38
2022-07-29T11:46:49.649Z,4.57
2022-07-29T11:52:02.399Z,3.67
2022-07-29T11:54:38.887Z,4.40
2022-07-29T11:57:22.605Z,3.83
2022-07-29T11:59:49.211Z,4.20
2022-07-29T12:02:37.121Z,4.03
2022-07-29T12:05:10.665Z,3.40
2022-07-29T12:07:39.432Z,3.92
2022-07-29T12:10:08.299Z,4.30
2022-07-29T12:12:39.532Z,3.75
2022-07-29T12:15:25.001Z,3.75
2022-07-29T12:18:14.003Z,4.40
2022-07-29T12:20:40.767Z,3.53
2022-07-29T12:23:13.190Z,3.25
2022-07-29T12:25:41.450Z,3.67
2022-07-29T12:28:14.121Z,3.45
2022-07-29T12:30:44.995Z,3.30
2022-07-29T12:33:18.485Z,3.22
2022-07-29T12:35:58.067Z,2.97
2022-07-29T12:38:30.552Z,2.70
2022-07-29T12:40:57.454Z,2.53
2022-07-29T12:43:25.801Z,2.65
2022-07-29T12:45:54.861Z,2.40
2022-07-29T12:48:38.734Z,2.60
2022-07-29T12:51:07.092Z,2.35
2022-07-29T12:53:34.029Z,2.83
2022-07-29T12:56:15.580Z,2.58
2022-07-29T12:58:51.426Z,3.00
2022-07-29T13:01:20.312Z,2.60
2022-07-29T13:03:57.391Z,2.58
2022-07-29T13:06:46.185Z,2.50
2022-07-29T13:09:23.325Z,2.45
2022-07-29T13:11:53.735Z,2.72
2022-07-29T13:14:54.794Z,2.20
2022-07-29T13:17:28.620Z,2.17
2022-07-29T13:20:09.721Z,2.42
2022-07-29T13:22:36.838Z,2.00
2022-07-29T13:25:04.104Z,2.22
2022-07-29T13:27:35.316Z,2.60
2022-07-29T13:30:05.704Z,2.57
2022-07-29T13:32:35.391Z,2.10
2022-07-29T13:35:05.730Z,2.75
2022-07-29T13:37:35.227Z,2.72
2022-07-29T13:40:04.337Z,2.50
2022-07-29T13:42:32.264Z,2.53
2022-07-29T13:45:00.482Z,2.70
2022-07-29T13:47:32.246Z,2.65
2022-07-29T13:50:00.626Z,2.60
2022-07-29T13:52:27.166Z,2.65
2022-07-29T13:54:53.646Z,2.60
2022-07-29T13:57:20.179Z,2.63
2022-07-29T13:59:50.532Z,2.80
2022-07-29T14:02:20.032Z,2.65
2022-07-29T14:04:47.084Z,2.38
2022-07-29T14:07:16.221Z,2.70
2022-07-29T14:09:43.312Z,2.60
2022-07-29T14:12:10.309Z,2.53
2022-07-29T14:14:37.648Z,2.88
2022-07-29T14:17:07.179Z,2.42
2022-07-29T14:19:36.517Z,2.20
2022-07-29T14:22:04.713Z,2.70
2022-07-29T14:24:32.124Z,2.47
2022-07-29T14:26:59.050Z,2.78
2022-07-29T14:29:35.250Z,2.80
2022-07-29T14:32:08.709Z,3.03
2022-07-29T14:34:36.276Z,3.05
2022-07-29T14:37:03.804Z,3.20
2022-07-29T14:39:31.628Z,2.90
2022-07-29T14:41:59.187Z,3.60
2022-07-29T14:44:31.779Z,3.10
2022-07-29T14:47:00.451Z,3.00
2022-07-29T14:49:27.883Z,3.08
2022-07-29T14:51:54.645Z,3.22
2022-07-29T14:54:21.272Z,3.40
2022-07-29T14:56:50.208Z,2.95
2022-07-29T14:59:17.322Z,3.20
2022-07-29T15:01:44.178Z,3.20
2022-07-29T15:04:10.672Z,2.65
2022-07-29T15:06:38.794Z,3.30
2022-07-29T15:09:05.502Z,2.80
2022-07-29T15:11:33.486Z,2.88
2022-07-29T15:14:05.713Z,2.50
2022-07-29T15:16:32.323Z,2.70
2022-07-29T15:19:01.082Z,2.90
2022-07-29T15:21:28.473Z,2.60
2022-07-29T15:23:54.965Z,2.70
2022-07-29T15:26:21.951Z,2.55
2022-07-29T15:28:48.835Z,2.80
2022-07-29T15:31:15.452Z,2.40
2022-07-29T15:33:42.057Z,2.33
2022-07-29T15:36:08.828Z,2.58
2022-07-29T15:38:35.358Z,2.72
2022-07-29T15:41:08.218Z,2.40
2022-07-29T15:43:36.114Z,2.88
2022-07-29T15:46:21.410Z,2.88
2022-07-29T15:48:48.124Z,3.30
2022-07-29T15:51:15.148Z,3.10
2022-07-29T15:53:41.674Z,2.90
2022-07-29T15:56:08.132Z,3.42
2022-07-29T15:58:34.590Z,3.25
2022-07-29T16:01:01.123Z,2.90
2022-07-29T16:03:27.656Z,2.78
2022-07-29T16:05:54.122Z,2.90
2022-07-29T16:08:20.587Z,3.15
2022-07-29T16:10:47.146Z,3.15
2022-07-29T16:13:16.992Z,3.42
2022-07-29T16:16:02.676Z,3.50
2022-07-29T16:18:30.376Z,2.92
2022-07-29T16:20:57.700Z,3.22
2022-07-29T16:23:24.718Z,2.90
2022-07-29T16:25:59.688Z,4.25
2022-07-29T16:28:26.398Z,3.40
2022-07-29T16:30:52.925Z,3.22
2022-07-29T16:33:19.374Z,2.90
2022-07-29T16:35:45.886Z,2.97
2022-07-29T16:38:12.346Z,2.72
2022-07-29T16:40:38.917Z,3.38
2022-07-29T16:43:05.401Z,3.35
2022-07-29T16:45:44.409Z,3.38
2022-07-29T16:48:12.540Z,2.90
2022-07-29T16:50:39.969Z,2.90
2022-07-29T16:53:06.874Z,2.70
2022-07-29T16:55:36.113Z,2.88
2022-07-29T16:58:02.617Z,2.70
2022-07-29T17:00:29.327Z,3.15
2022-07-29T17:02:55.896Z,3.15
2022-07-29T17:05:22.692Z,3.40
2022-07-29T17:07:49.877Z,3.20
2022-07-29T17:10:16.459Z,3.25
2022-07-29T17:12:43.099Z,3.38
2022-07-29T17:15:14.385Z,3.03
2022-07-29T17:17:55.369Z,3.63
2022-07-29T17:20:23.485Z,3.10
2022-07-29T17:22:49.965Z,3.92
2022-07-29T17:25:21.103Z,3.70
2022-07-29T17:27:49.669Z,3.65
2022-07-29T17:30:16.899Z,3.40
2022-07-29T17:32:43.352Z,3.30
2022-07-29T17:35:29.026Z,3.10
2022-07-29T17:37:55.877Z,3.47
2022-07-29T17:40:22.578Z,2.90
2022-07-29T17:42:49.197Z,3.08
2022-07-29T17:45:18.997Z,3.30
2022-07-29T17:47:45.558Z,3.15
2022-07-29T17:50:12.154Z,3.28
2022-07-29T17:52:39.097Z,3.95
2022-07-29T17:55:06.959Z,4.20
2022-07-29T17:57:34.149Z,3.75
2022-07-29T18:00:01.046Z,4.07
2022-07-29T18:02:27.821Z,4.32
2022-07-29T18:04:55.121Z,4.63
2022-07-29T18:07:21.670Z,4.60
2022-07-29T18:09:48.141Z,4.88
2022-07-29T18:12:14.655Z,5.07
2022-07-29T18:14:41.180Z,4.40
2022-07-29T18:17:07.969Z,4.75
2022-07-29T18:19:34.393Z,5.20
2022-07-29T18:22:05.243Z,5.00
2022-07-29T18:24:35.788Z,5.05
2022-07-29T18:27:04.811Z,4.60
2022-07-29T18:29:31.316Z,4.68
2022-07-29T18:31:59.802Z,5.20
2022-07-29T18:34:26.329Z,4.93
2022-07-29T18:36:52.926Z,5.10
2022-07-29T18:39:21.123Z,5.07
2022-07-29T18:41:50.137Z,5.22
2022-07-29T18:44:18.796Z,5.38
2022-07-29T18:46:47.411Z,5.22
2022-07-29T18:49:14.765Z,5.40
2022-07-29T18:51:41.392Z,5.05
2022-07-29T18:54:09.132Z,5.60
2022-07-29T18:56:35.598Z,5.53
2022-07-29T18:59:02.960Z,5.88
2022-07-29T19:01:31.809Z,5.93
2022-07-29T19:03:59.228Z,5.05
2022-07-29T19:06:26.215Z,6.10
2022-07-29T19:08:53.222Z,5.82
2022-07-29T19:11:22.101Z,5.80
2022-07-29T19:13:51.414Z,6.55
2022-07-29T19:16:18.385Z,6.18
2022-07-29T19:18:47.919Z,5.55
2022-07-29T19:21:14.407Z,6.00
2022-07-29T19:24:04.175Z,6.50
2022-07-29T19:26:28.514Z,6.53
2022-07-29T19:28:55.255Z,7.18
2022-07-29T19:31:21.795Z,6.07
2022-07-29T19:33:48.392Z,6.30
2022-07-29T19:36:14.983Z,5.72
2022-07-29T19:38:41.497Z,6.03
2022-07-29T19:41:08.500Z,6.45
2022-07-29T19:43:50.994Z,5.88
2022-07-29T19:46:20.870Z,5.95
2022-07-29T19:48:47.937Z,5.90
2022-07-29T19:51:14.541Z,6.35
2022-07-29T19:53:41.077Z,6.20
2022-07-29T19:56:08.900Z,6.05
2022-07-29T19:58:36.163Z,6.07
2022-07-29T20:01:10.602Z,6.10
2022-07-29T20:03:44.688Z,6.45
2022-07-29T20:06:11.377Z,6.25
2022-07-29T20:08:38.219Z,6.30
2022-07-29T20:11:05.253Z,6.50
2022-07-29T20:13:33.535Z,7.22
2022-07-29T20:16:01.126Z,7.82
2022-07-29T20:18:27.778Z,7.45
2022-07-29T20:20:56.149Z,7.38
2022-07-29T20:23:23.262Z,7.10
2022-07-29T20:25:49.992Z,7.75
2022-07-29T20:28:16.521Z,9.82
2022-07-29T20:30:43.146Z,9.90
2022-07-29T20:33:09.757Z,8.80
2022-07-29T20:35:36.426Z,8.15
2022-07-29T20:38:05.278Z,8.10
2022-07-29T20:40:35.716Z,7.90
2022-07-29T20:43:02.178Z,7.57
2022-07-29T20:45:38.596Z,7.30
2022-07-29T20:48:10.522Z,8.00
2022-07-29T20:50:37.370Z,8.43
2022-07-29T20:53:03.845Z,8.07
2022-07-29T20:55:33.213Z,7.97
2022-07-29T20:57:59.777Z,8.60
2022-07-29T21:00:26.446Z,8.27
2022-07-29T21:02:52.963Z,8.32
2022-07-29T21:05:19.650Z,7.85
2022-07-29T21:07:46.168Z,8.15
2022-07-29T21:10:14.076Z,8.20
2022-07-29T21:12:41.813Z,7.88
2022-07-29T21:15:09.013Z,7.60
2022-07-29T21:17:36.108Z,7.60
2022-07-29T21:20:06.624Z,7.20
2022-07-29T21:22:33.155Z,7.60
2022-07-29T21:24:59.782Z,7.40
2022-07-29T21:27:44.901Z,7.13
2022-07-29T21:30:11.478Z,7.13
2022-07-29T21:32:38.179Z,7.45
2022-07-29T21:35:18.268Z,7.40
2022-07-29T21:37:51.763Z,7.80
2022-07-29T21:40:18.313Z,7.30
2022-07-29T21:42:44.844Z,7.45
2022-07-29T21:45:13.400Z,8.32
2022-07-29T21:47:39.868Z,8.20
2022-07-29T21:50:06.849Z,7.63
2022-07-29T21:52:33.286Z,7.93
2022-07-29T21:54:59.947Z,8.80
2022-07-29T21:57:26.516Z,8.05
2022-07-29T21:59:59.523Z,9.27
2022-07-29T22:02:28.893Z,8.93
2022-07-29T22:04:55.444Z,9.02
2022-07-29T22:07:21.950Z,9.13
2022-07-29T22:09:48.467Z,8.35
2022-07-29T22:12:15.010Z,8.57
2022-07-29T22:14:42.049Z,8.63
2022-07-29T22:17:08.600Z,9.27
2022-07-29T22:19:35.111Z,9.38
2022-07-29T22:22:01.537Z,10.25
2022-07-29T22:24:27.997Z,10.35
2022-07-29T22:26:54.511Z,10.80
2022-07-29T22:29:21.022Z,9.70
2022-07-29T22:31:47.481Z,9.75
2022-07-29T22:34:14.290Z,10.32
2022-07-29T22:36:41.166Z,10.25
2022-07-29T22:39:07.849Z,11.07
2022-07-29T22:41:34.738Z,11.05
2022-07-29T22:44:01.287Z,10.73
2022-07-29T22:46:27.859Z,10.43
2022-07-29T22:48:54.404Z,11.95
2022-07-29T22:51:21.004Z,11.90
2022-07-29T22:53:47.473Z,11.77
2022-07-29T22:56:13.957Z,11.05
2022-07-29T22:58:40.451Z,12.73
2022-07-29T23:01:07.063Z,12.38
2022-07-29T23:03:33.826Z,12.43
2022-07-29T23:06:00.394Z,11.77
2022-07-29T23:08:26.857Z,12.23
2022-07-29T23:10:53.405Z,12.07
2022-07-29T23:13:19.848Z,12.07
2022-07-29T23:15:46.347Z,11.48
2022-07-29T23:18:12.937Z,12.45
2022-07-29T23:20:39.581Z,12.40
2022-07-29T23:23:06.105Z,14.05
2022-07-29T23:25:32.673Z,13.05
2022-07-29T23:27:59.145Z,13.02
2022-07-29T23:30:25.782Z,12.15
2022-07-29T23:32:55.865Z,12.32
2022-07-29T23:35:23.339Z,12.27
2022-07-29T23:37:49.886Z,13.07
2022-07-29T23:40:16.545Z,13.05
2022-07-29T23:42:43.490Z,13.20
2022-07-29T23:45:11.545Z,13.60
2022-07-29T23:47:38.113Z,13.68
2022-07-29T23:50:09.338Z,14.20
2022-07-29T23:52:35.773Z,13.75
2022-07-29T23:55:36.371Z,14.10
2022-07-29T23:57:48.819Z,14.13
